Time;durP1;ratioP1;P1;durP2;ratioP2;P2;SDS_P1;SDS_P2;PMS_P1;PMS_P2;Temp;Humidity;BMP_temperature;BMP_pressure;BME280_temperature;BME280_humidity;BME280_pressure;Samples;Min_cycle;Max_cycle;Signal;HPM_P1;HPM_P2
2023/01/27 00:00:23;;;;;;;46.07;20.60;;;;;;;-0.80;91.53;100248.63;5062247;23;22026;-70
2023/01/27 00:02:50;;;;;;;44.57;20.10;;;;;;;-0.81;91.66;100246.97;5100879;23;20217;-68
2023/01/27 00:05:17;;;;;;;47.17;19.97;;;;;;;-0.86;91.41;100232.38;5071593;23;20323;-67
2023/01/27 00:07:47;;;;;;;42.40;19.37;;;;;;;-0.83;91.42;100238.34;5070324;23;20664;-66
2023/01/27 00:10:15;;;;;;;46.97;20.60;;;;;;;-0.83;91.41;100235.75;5086479;23;21665;-65
2023/01/27 00:15:29;;;;;;;44.00;20.77;;;;;;;-0.76;91.75;100242.34;5082253;23;24356;-67
2023/01/27 00:17:56;;;;;;;45.03;20.17;;;;;;;-0.76;91.46;100240.56;5073348;23;20294;-68
2023/01/27 00:26:09;;;;;;;44.47;19.27;;;;;;;-0.70;91.68;100242.06;5076127;23;20618;-66
2023/01/27 00:28:39;;;;;;;44.03;19.23;;;;;;;-0.73;91.76;100231.72;5053770;23;21710;-65
2023/01/27 00:33:53;;;;;;;45.07;20.07;;;;;;;-0.71;91.73;100245.56;5080900;23;20669;-67
2023/01/27 00:36:19;;;;;;;44.07;20.00;;;;;;;-0.74;92.19;100243.13;5068159;23;20210;-65
2023/01/27 00:38:46;;;;;;;51.97;20.30;;;;;;;-0.70;91.92;100242.88;5083208;23;20369;-66
2023/01/27 00:41:18;;;;;;;47.20;20.47;;;;;;;-0.75;91.90;100244.03;5080851;23;20212;-67
2023/01/27 00:43:45;;;;;;;44.00;19.57;;;;;;;-0.77;91.15;100246.72;5073119;23;21190;-69
2023/01/27 00:46:13;;;;;;;50.00;19.93;;;;;;;-0.76;91.13;100242.34;5075028;23;20331;-66
2023/01/27 00:48:39;;;;;;;46.93;21.17;;;;;;;-0.80;91.44;100252.09;5068587;23;20227;-66
2023/01/27 00:51:06;;;;;;;50.40;20.10;;;;;;;-0.83;91.75;100254.03;5066680;23;20673;-68
2023/01/27 00:53:32;;;;;;;46.47;19.03;;;;;;;-0.75;91.33;100249.25;5068416;23;20748;-67
2023/01/27 00:55:59;;;;;;;46.33;21.57;;;;;;;-0.71;91.37;100262.09;5064372;23;20497;-67
2023/01/27 00:58:27;;;;;;;45.57;20.07;;;;;;;-0.80;91.22;100257.31;5066953;23;20301;-65
2023/01/27 01:00:55;;;;;;;42.03;18.67;;;;;;;-0.82;91.48;100253.09;5068229;23;20305;-67
2023/01/27 01:03:22;;;;;;;46.43;20.43;;;;;;;-0.85;91.93;100260.16;5089065;23;20421;-66
2023/01/27 01:05:48;;;;;;;49.93;20.60;;;;;;;-0.89;92.14;100258.66;5073801;23;20453;-65
2023/01/27 01:08:15;;;;;;;43.80;19.47;;;;;;;-0.87;92.33;100262.03;5049635;23;22527;-65
2023/01/27 01:10:42;;;;;;;46.83;19.50;;;;;;;-0.85;91.99;100261.94;5066754;23;21576;-64
2023/01/27 01:13:10;;;;;;;45.67;19.63;;;;;;;-0.84;91.91;100253.19;5064974;23;20207;-64
2023/01/27 01:15:38;;;;;;;46.70;20.27;;;;;;;-0.85;91.93;100259.31;5070453;23;22527;-65
2023/01/27 01:18:06;;;;;;;42.47;18.87;;;;;;;-0.91;91.61;100254.41;5054377;23;20216;-67
2023/01/27 01:20:37;;;;;;;44.50;19.83;;;;;;;-0.89;91.90;100252.56;5061927;23;20219;-63
2023/01/27 01:23:04;;;;;;;45.07;19.00;;;;;;;-0.94;91.65;100260.63;5049700;23;20255;-67
2023/01/27 01:25:31;;;;;;;41.90;19.60;;;;;;;-0.93;91.70;100262.31;5092652;23;20542;-66
2023/01/27 01:27:58;;;;;;;47.37;19.20;;;;;;;-0.92;91.56;100250.94;5072483;23;20211;-64
2023/01/27 01:30:26;;;;;;;46.70;20.33;;;;;;;-0.94;91.72;100251.94;5072108;23;20488;-67
2023/01/27 01:32:53;;;;;;;45.57;19.77;;;;;;;-0.90;91.96;100250.88;5069725;23;22434;-64
2023/01/27 01:35:20;;;;;;;42.53;18.77;;;;;;;-0.83;91.56;100252.25;5063748;23;21385;-64
2023/01/27 01:37:47;;;;;;;45.00;20.03;;;;;;;-0.81;91.24;100249.56;5074222;23;20204;-66
2023/01/27 01:40:13;;;;;;;42.80;18.80;;;;;;;-0.86;91.12;100257.66;5049739;23;25982;-64
2023/01/27 01:42:52;;;;;;;44.10;19.43;;;;;;;-0.81;91.48;100252.19;5067896;23;22918;-65
2023/01/27 01:45:31;;;;;;;46.10;18.53;;;;;;;-0.83;91.01;100254.88;5065806;23;20206;-65
2023/01/27 01:47:58;;;;;;;47.47;19.70;;;;;;;-0.86;91.21;100253.25;5071716;23;20230;-65
2023/01/27 01:50:25;;;;;;;42.73;19.17;;;;;;;-0.81;91.24;100262.63;5096518;23;21752;-65
2023/01/27 01:52:53;;;;;;;39.50;18.27;;;;;;;-0.76;91.04;100250.19;5053971;23;20278;-65
2023/01/27 01:55:20;;;;;;;41.13;18.43;;;;;;;-0.79;90.90;100258.19;5069625;23;20211;-64
2023/01/27 01:57:47;;;;;;;39.40;17.77;;;;;;;-0.88;90.00;100257.72;5055456;23;20798;-66
2023/01/27 02:00:14;;;;;;;39.07;17.37;;;;;;;-0.92;90.18;100264.00;5064584;23;20274;-65
2023/01/27 02:02:42;;;;;;;42.87;18.77;;;;;;;-0.92;90.10;100253.56;5084561;23;21462;-68
2023/01/27 02:05:29;;;;;;;43.33;18.63;;;;;;;-0.92;90.50;100252.72;5054469;23;23409;-66
2023/01/27 02:08:15;;;;;;;44.00;19.47;;;;;;;-0.87;90.72;100256.81;5072414;23;20673;-66
2023/01/27 02:10:41;;;;;;;42.30;19.13;;;;;;;-0.89;90.68;100255.16;5084790;23;20257;-68
2023/01/27 02:13:08;;;;;;;42.17;18.07;;;;;;;-0.93;91.01;100256.25;5057584;23;20561;-65
2023/01/27 02:15:35;;;;;;;44.67;19.97;;;;;;;-0.94;90.96;100259.78;5079680;23;20209;-65
2023/01/27 02:18:01;;;;;;;40.93;18.20;;;;;;;-0.98;91.04;100253.88;5074572;23;20377;-64
2023/01/27 02:20:34;;;;;;;47.50;19.60;;;;;;;-0.97;91.61;100260.78;5074836;23;20208;-64
2023/01/27 02:23:09;;;;;;;43.33;18.50;;;;;;;-0.95;90.82;100258.94;5067237;23;20235;-66
2023/01/27 02:25:36;;;;;;;40.13;18.13;;;;;;;-0.98;90.67;100259.09;5066210;23;20203;-67
2023/01/27 02:28:04;;;;;;;35.30;16.20;;;;;;;-1.01;91.34;100251.41;5072711;23;20606;-66
2023/01/27 02:30:31;;;;;;;41.53;18.57;;;;;;;-1.03;90.71;100250.66;5072354;23;20603;-65
2023/01/27 02:32:58;;;;;;;40.70;17.83;;;;;;;-1.00;90.94;100260.94;5064169;23;20218;-65
2023/01/27 02:35:42;;;;;;;41.10;18.77;;;;;;;-0.97;91.09;100259.94;5097891;23;20378;-64
2023/01/27 02:38:10;;;;;;;38.17;16.97;;;;;;;-0.85;89.74;100269.78;5080893;23;20631;-64
2023/01/27 02:40:38;;;;;;;32.37;15.40;;;;;;;-0.91;88.55;100268.31;5049826;23;20521;-65
2023/01/27 02:43:04;;;;;;;35.23;16.60;;;;;;;-0.86;88.23;100263.72;5079515;23;20212;-66
2023/01/27 02:45:30;;;;;;;37.60;16.57;;;;;;;-0.90;87.74;100258.72;5077158;23;20309;-63
2023/01/27 02:47:57;;;;;;;34.03;15.03;;;;;;;-0.95;87.12;100264.16;5070682;23;20266;-65
2023/01/27 02:50:24;;;;;;;35.40;15.67;;;;;;;-0.97;87.56;100255.56;5067818;23;21224;-65
2023/01/27 02:52:50;;;;;;;38.37;17.13;;;;;;;-1.02;87.46;100254.94;5073689;23;20665;-63
2023/01/27 02:55:16;;;;;;;33.57;15.87;;;;;;;-1.01;86.96;100248.78;5070680;23;22479;-65
2023/01/27 02:57:43;;;;;;;35.67;16.43;;;;;;;-1.02;87.28;100254.94;5069806;23;20387;-65
2023/01/27 03:00:12;;;;;;;38.13;16.87;;;;;;;-0.99;87.23;100257.41;5059039;23;20261;-65
2023/01/27 03:02:39;;;;;;;32.73;15.23;;;;;;;-0.86;86.72;100257.66;5039905;23;20289;-66
2023/01/27 03:05:06;;;;;;;38.97;17.53;;;;;;;-0.93;86.82;100264.94;5027608;23;20209;-67
2023/01/27 03:07:33;;;;;;;36.07;16.23;;;;;;;-0.90;87.10;100263.94;5055063;23;20203;-66
2023/01/27 03:09:59;;;;;;;33.30;15.43;;;;;;;-0.89;87.08;100263.00;5032224;23;20272;-64
2023/01/27 03:12:26;;;;;;;37.77;16.70;;;;;;;-0.90;86.83;100266.53;5045735;23;20608;-67
2023/01/27 03:20:23;;;;;;;38.60;16.80;;;;;;;-0.95;87.58;100253.72;5043542;23;20209;-65
2023/01/27 03:22:50;;;;;;;37.33;17.20;;;;;;;-0.96;87.85;100257.25;5043084;23;20223;-67
2023/01/27 03:25:16;;;;;;;41.23;18.03;;;;;;;-0.93;87.88;100264.94;5040906;23;20473;-68
2023/01/27 03:27:43;;;;;;;39.13;17.57;;;;;;;-0.94;88.10;100265.84;5029148;23;20201;-66
2023/01/27 03:30:11;;;;;;;36.40;17.27;;;;;;;-0.96;87.87;100262.47;5038851;23;20614;-65
2023/01/27 03:32:45;;;;;;;41.90;17.53;;;;;;;-0.89;88.15;100261.25;5035764;23;20371;-64
2023/01/27 03:35:14;;;;;;;37.87;17.23;;;;;;;-0.93;87.41;100262.31;5050727;23;20201;-65
2023/01/27 03:48:42;;;;;;;38.17;17.37;;;;;;;-0.97;89.65;100266.00;5038920;23;20209;-66
2023/01/27 03:51:09;;;;;;;40.37;17.90;;;;;;;-0.95;89.41;100269.38;5059796;23;20200;-64
2023/01/27 03:53:36;;;;;;;41.03;18.30;;;;;;;-0.96;89.62;100275.53;5055864;23;20201;-65
2023/01/27 03:56:04;;;;;;;39.03;17.97;;;;;;;-0.97;89.90;100268.63;5032237;23;20925;-64
2023/01/27 03:58:35;;;;;;;39.53;18.27;;;;;;;-0.95;90.16;100273.78;5039290;23;21043;-64
2023/01/27 04:01:15;;;;;;;44.43;18.60;;;;;;;-0.99;90.40;100267.00;5032902;23;20638;-65
2023/01/27 04:09:32;;;;;;;41.30;18.57;;;;;;;-0.87;90.51;100282.06;5045528;23;20300;-65
2023/01/27 04:12:04;;;;;;;40.17;18.67;;;;;;;-0.77;90.43;100282.44;5043088;23;21621;-64
2023/01/27 04:14:38;;;;;;;42.50;17.93;;;;;;;-0.85;90.29;100283.66;5076565;23;20208;-66
2023/01/27 04:17:11;;;;;;;46.33;19.13;;;;;;;-0.90;90.96;100283.06;5039338;23;20219;-66
2023/01/27 04:19:38;;;;;;;50.37;19.63;;;;;;;-0.95;90.87;100285.06;5027639;23;20208;-65
2023/01/27 04:22:05;;;;;;;41.20;18.90;;;;;;;-0.95;91.55;100290.28;5053419;23;20212;-67
2023/01/27 04:24:32;;;;;;;42.50;18.27;;;;;;;-0.95;91.92;100284.22;5041839;23;20219;-67
2023/01/27 04:27:03;;;;;;;41.53;17.43;;;;;;;-0.89;91.58;100290.00;5039641;23;20208;-67
2023/01/27 04:29:33;;;;;;;45.50;19.00;;;;;;;-0.93;89.87;100287.59;5036677;23;20212;-67
2023/01/27 04:32:00;;;;;;;44.00;19.23;;;;;;;-0.91;89.54;100293.59;5070010;23;20222;-65
2023/01/27 04:34:27;;;;;;;44.47;19.87;;;;;;;-0.85;89.81;100288.88;5042376;23;20269;-65
2023/01/27 04:36:54;;;;;;;40.33;18.27;;;;;;;-0.86;89.78;100289.81;5037653;23;20972;-65
2023/01/27 04:39:21;;;;;;;42.40;18.80;;;;;;;-0.86;89.95;100289.00;5028961;23;20244;-64
2023/01/27 04:41:48;;;;;;;40.43;18.20;;;;;;;-0.83;90.06;100293.22;5035963;23;20267;-67
2023/01/27 04:44:15;;;;;;;39.53;18.03;;;;;;;-0.85;89.83;100288.88;5040873;23;20311;-65
2023/01/27 04:46:41;;;;;;;42.67;17.33;;;;;;;-0.85;89.93;100286.28;5041190;23;20414;-66
2023/01/27 04:49:08;;;;;;;40.17;18.00;;;;;;;-0.86;88.11;100292.44;5041951;23;20219;-66
2023/01/27 04:51:35;;;;;;;43.37;18.63;;;;;;;-0.86;87.76;100286.38;5040129;23;20256;-65
2023/01/27 04:54:02;;;;;;;48.23;19.17;;;;;;;-0.86;88.95;100294.22;5039770;23;22135;-67
2023/01/27 04:56:31;;;;;;;43.60;19.37;;;;;;;-0.88;89.09;100293.44;5038298;23;20502;-65
2023/01/27 04:58:58;;;;;;;46.23;20.13;;;;;;;-0.87;89.79;100296.00;5053632;23;21751;-66
2023/01/27 05:01:26;;;;;;;45.60;19.97;;;;;;;-0.90;90.52;100303.94;5062890;23;21976;-66
2023/01/27 05:03:52;;;;;;;46.40;19.07;;;;;;;-0.92;91.08;100304.94;5068100;23;20314;-67
2023/01/27 05:06:19;;;;;;;51.30;20.83;;;;;;;-0.93;91.73;100304.13;5064312;23;20227;-67
2023/01/27 05:08:46;;;;;;;43.40;19.60;;;;;;;-0.90;91.08;100305.72;5103700;23;21118;-68
2023/01/27 05:11:14;;;;;;;42.87;19.33;;;;;;;-0.86;91.00;100308.13;5075269;23;21601;-68
2023/01/27 05:13:40;;;;;;;45.87;19.97;;;;;;;-0.81;91.59;100307.06;5054295;23;20711;-68
2023/01/27 05:16:22;;;;;;;42.53;19.30;;;;;;;-0.78;90.95;100312.13;5061915;23;21779;-66
2023/01/27 05:18:50;;;;;;;48.60;21.40;;;;;;;-0.72;90.62;100307.44;5066631;23;22255;-65
2023/01/27 05:21:22;;;;;;;46.73;19.50;;;;;;;-0.85;90.47;100312.41;5058522;23;20208;-66
2023/01/27 05:23:49;;;;;;;43.20;19.10;;;;;;;-0.83;90.62;100306.28;5069807;23;20264;-67
2023/01/27 05:26:18;;;;;;;42.73;19.27;;;;;;;-0.88;91.36;100320.41;5063317;23;20208;-64
2023/01/27 05:28:45;;;;;;;44.33;19.13;;;;;;;-0.91;91.10;100317.94;5066031;23;20370;-65
2023/01/27 05:31:17;;;;;;;44.27;19.33;;;;;;;-0.92;90.69;100331.91;5065361;23;20292;-67
2023/01/27 05:33:45;;;;;;;46.80;20.10;;;;;;;-0.94;91.12;100330.28;5092614;23;20283;-65
2023/01/27 05:36:13;;;;;;;44.07;19.17;;;;;;;-0.93;91.78;100318.94;5049053;23;23083;-67
2023/01/27 05:38:40;;;;;;;59.67;24.37;;;;;;;-0.91;91.84;100335.38;5050801;23;20205;-65
2023/01/27 05:41:08;;;;;;;49.90;20.70;;;;;;;-0.93;91.97;100335.47;5060890;23;21155;-64
2023/01/27 05:43:36;;;;;;;43.57;19.47;;;;;;;-0.97;92.56;100339.13;5040988;23;20204;-67
2023/01/27 05:46:07;;;;;;;43.23;19.10;;;;;;;-1.01;92.73;100336.75;5056508;23;21186;-65
2023/01/27 05:48:37;;;;;;;42.90;19.30;;;;;;;-0.98;92.72;100332.22;5052099;23;20206;-66
2023/01/27 05:51:04;;;;;;;42.53;19.13;;;;;;;-0.98;92.69;100336.63;5062013;23;20208;-64
2023/01/27 05:53:32;;;;;;;42.13;18.07;;;;;;;-0.82;91.84;100326.25;5046213;23;20204;-66
2023/01/27 05:55:58;;;;;;;49.97;19.87;;;;;;;-0.93;91.15;100334.63;5055402;23;20200;-66
2023/01/27 05:58:25;;;;;;;46.30;20.87;;;;;;;-0.97;91.77;100338.28;5061413;23;20270;-66
2023/01/27 06:00:53;;;;;;;44.87;20.37;;;;;;;-1.06;92.50;100336.97;5046438;23;20212;-66
2023/01/27 06:03:20;;;;;;;47.80;20.33;;;;;;;-1.10;93.27;100338.00;5045314;23;20204;-65
2023/01/27 06:06:05;;;;;;;44.20;20.07;;;;;;;-1.11;93.81;100336.34;5042121;23;22896;-65
2023/01/27 06:08:32;;;;;;;45.00;18.87;;;;;;;-1.11;94.32;100344.16;5060476;23;20980;-67
2023/01/27 06:10:59;;;;;;;38.77;17.73;;;;;;;-1.14;94.92;100345.16;5049687;23;20262;-66
2023/01/27 06:13:26;;;;;;;43.00;19.33;;;;;;;-1.16;94.78;100349.59;5045051;23;20265;-67
2023/01/27 06:15:54;;;;;;;41.63;18.47;;;;;;;-1.14;95.30;100353.00;5056881;23;21026;-64
2023/01/27 06:18:22;;;;;;;46.23;19.97;;;;;;;-0.94;94.33;100359.88;5035550;23;20215;-69
2023/01/27 06:20:49;;;;;;;47.43;19.03;;;;;;;-0.99;94.58;100361.84;5053522;23;20276;-64
2023/01/27 06:23:16;;;;;;;43.43;20.17;;;;;;;-1.01;94.07;100362.84;5071359;23;23045;-65
2023/01/27 06:25:45;;;;;;;42.70;19.47;;;;;;;-0.96;94.22;100366.94;5048916;23;20209;-66
2023/01/27 06:28:15;;;;;;;47.00;19.43;;;;;;;-0.83;94.14;100371.59;5048566;23;20277;-67
2023/01/27 06:30:54;;;;;;;44.77;19.30;;;;;;;-0.97;94.05;100380.06;5066054;23;20304;-66
2023/01/27 06:33:21;;;;;;;45.50;20.43;;;;;;;-1.04;95.11;100374.28;5042952;23;20238;-68
2023/01/27 06:35:48;;;;;;;47.90;19.93;;;;;;;-1.06;95.95;100376.13;5044644;23;20268;-65
2023/01/27 06:38:14;;;;;;;55.93;19.97;;;;;;;-1.06;96.00;100378.75;5051745;23;21413;-65
2023/01/27 06:40:42;;;;;;;46.30;21.00;;;;;;;-1.00;95.75;100375.00;5039312;23;20207;-68
2023/01/27 06:43:12;;;;;;;50.87;22.43;;;;;;;-1.08;96.14;100381.44;5057552;23;20281;-65
2023/01/27 06:45:39;;;;;;;55.43;23.13;;;;;;;-1.09;96.26;100381.50;5053837;23;20204;-66
2023/01/27 06:48:07;;;;;;;51.27;20.90;;;;;;;-1.11;96.09;100383.34;5039577;23;20210;-63
2023/01/27 06:50:34;;;;;;;52.03;21.43;;;;;;;-1.16;96.02;100385.31;5047839;23;20364;-63
2023/01/27 06:53:04;;;;;;;47.80;20.90;;;;;;;-1.14;96.64;100383.50;5063932;23;21623;-67
2023/01/27 06:55:30;;;;;;;53.87;21.87;;;;;;;-1.11;96.43;100378.94;5086717;23;20305;-60
2023/01/27 06:57:57;;;;;;;49.93;20.97;;;;;;;-1.07;96.40;100384.91;5062290;23;20209;-62
2023/01/27 07:00:24;;;;;;;48.57;21.47;;;;;;;-1.04;96.36;100389.97;5069266;23;21669;-61
2023/01/27 07:02:52;;;;;;;53.80;22.40;;;;;;;-0.98;96.33;100389.69;5093406;23;20657;-62
2023/01/27 07:05:19;;;;;;;59.93;22.40;;;;;;;-0.93;96.40;100385.09;5089256;23;20382;-65
2023/01/27 07:07:45;;;;;;;66.37;23.20;;;;;;;-0.89;96.88;100393.59;5054528;23;20353;-62
2023/01/27 07:10:12;;;;;;;61.07;23.97;;;;;;;-0.85;97.47;100385.53;5072536;23;20211;-61
2023/01/27 07:12:39;;;;;;;61.57;24.27;;;;;;;-0.79;96.99;100389.66;5059297;23;20335;-61
2023/01/27 07:15:07;;;;;;;70.07;25.33;;;;;;;-0.77;97.09;100386.94;5077081;23;21524;-63
2023/01/27 07:17:34;;;;;;;60.60;25.90;;;;;;;-0.73;97.36;100391.94;5099485;23;20219;-64
2023/01/27 07:20:02;;;;;;;66.17;28.13;;;;;;;-0.65;97.62;100381.97;5068875;23;22031;-64
2023/01/27 07:22:28;;;;;;;62.43;24.83;;;;;;;-0.59;97.44;100395.66;5073533;23;21623;-65
2023/01/27 07:24:55;;;;;;;71.00;27.40;;;;;;;-0.48;97.34;100394.22;5089772;23;20307;-66
2023/01/27 07:27:22;;;;;;;66.57;26.90;;;;;;;-0.34;96.69;100397.94;5095527;23;20254;-66
2023/01/27 07:29:49;;;;;;;62.10;25.97;;;;;;;-0.30;96.76;100394.25;5070928;23;20204;-64
2023/01/27 07:32:16;;;;;;;67.67;26.63;;;;;;;-0.24;96.71;100394.75;5082418;23;20284;-67
2023/01/27 07:34:42;;;;;;;63.77;26.80;;;;;;;-0.16;96.28;100394.38;5074356;23;20370;-68
2023/01/27 07:37:09;;;;;;;65.80;26.83;;;;;;;-0.14;95.93;100395.16;5069065;23;20204;-69
2023/01/27 07:39:36;;;;;;;64.67;27.77;;;;;;;-0.08;95.43;100401.84;5078836;23;20288;-64
2023/01/27 07:42:04;;;;;;;64.67;24.63;;;;;;;0.01;94.96;100400.53;5076524;23;20204;-64
2023/01/27 07:44:30;;;;;;;67.77;29.63;;;;;;;-0.05;93.44;100401.69;5078819;23;20269;-62
2023/01/27 07:46:57;;;;;;;69.07;27.83;;;;;;;-0.14;92.33;100395.16;5079937;23;20208;-62
2023/01/27 07:49:24;;;;;;;80.13;29.13;;;;;;;-0.17;92.15;100394.47;5087968;23;20328;-63
2023/01/27 07:51:53;;;;;;;74.43;30.57;;;;;;;-0.18;91.92;100401.47;5100697;23;20518;-63
2023/01/27 07:54:20;;;;;;;88.97;34.20;;;;;;;-0.17;92.75;100397.91;5067366;23;20204;-61
2023/01/27 07:56:46;;;;;;;81.50;33.87;;;;;;;-0.10;93.01;100401.91;5079147;23;20307;-65
2023/01/27 07:59:13;;;;;;;83.60;34.27;;;;;;;-0.07;91.79;100408.75;5089732;23;20204;-63
2023/01/27 08:01:40;;;;;;;70.37;28.70;;;;;;;-0.07;91.18;100407.00;5063269;23;20208;-62
2023/01/27 08:04:07;;;;;;;71.97;28.97;;;;;;;0.02;90.26;100400.44;5083267;23;21850;-68
2023/01/27 08:06:34;;;;;;;61.30;25.43;;;;;;;-0.01;87.98;100404.06;5091591;23;21598;-64
2023/01/27 08:09:00;;;;;;;56.87;25.63;;;;;;;0.11;88.09;100409.59;5045938;23;20374;-66
2023/01/27 08:11:27;;;;;;;62.50;26.83;;;;;;;0.26;87.29;100406.19;5095860;23;22357;-63
2023/01/27 08:13:53;;;;;;;78.70;29.60;;;;;;;0.25;86.59;100408.88;5099131;23;20246;-63
2023/01/27 08:16:20;;;;;;;68.67;28.40;;;;;;;0.33;86.40;100407.56;5079378;23;20204;-64
2023/01/27 08:18:46;;;;;;;67.57;28.43;;;;;;;0.33;86.21;100407.56;5076195;23;20206;-65
2023/01/27 08:21:13;;;;;;;75.43;28.53;;;;;;;0.38;85.74;100410.78;5078715;23;20199;-64
2023/01/27 08:23:39;;;;;;;73.07;29.10;;;;;;;0.55;85.71;100412.50;5095659;23;20206;-66
2023/01/27 08:26:06;;;;;;;59.37;24.63;;;;;;;0.50;84.51;100413.69;5093435;23;20199;-65
2023/01/27 08:28:36;;;;;;;61.23;26.00;;;;;;;0.46;84.00;100412.97;5095038;23;25268;-67
2023/01/27 08:31:08;;;;;;;68.17;26.17;;;;;;;0.46;84.47;100414.75;5085499;23;22110;-66
2023/01/27 08:33:35;;;;;;;62.23;25.70;;;;;;;0.44;84.47;100420.06;5068975;23;20207;-66
2023/01/27 08:36:07;;;;;;;55.40;24.87;;;;;;;0.43;83.43;100418.38;5126515;23;21380;-65
2023/01/27 08:38:34;;;;;;;55.50;23.57;;;;;;;0.39;83.60;100422.94;5095182;23;20266;-64
2023/01/27 08:41:10;;;;;;;55.57;25.27;;;;;;;0.46;83.48;100422.63;5077647;23;21683;-65
2023/01/27 08:43:37;;;;;;;65.53;26.40;;;;;;;0.51;83.05;100420.59;5095056;23;21991;-65
2023/01/27 08:46:05;;;;;;;54.80;23.87;;;;;;;0.43;82.74;100428.03;5061694;23;20711;-65
2023/01/27 08:48:33;;;;;;;61.77;24.27;;;;;;;0.44;82.51;100429.69;5071324;23;20632;-65
2023/01/27 08:51:00;;;;;;;55.97;22.37;;;;;;;0.46;81.78;100423.44;5079971;23;20235;-65
2023/01/27 08:53:27;;;;;;;54.33;22.93;;;;;;;0.43;82.18;100434.09;5084166;23;20380;-63
2023/01/27 08:55:58;;;;;;;57.40;24.33;;;;;;;0.60;82.46;100428.81;5078067;23;21170;-64
2023/01/27 08:58:24;;;;;;;58.17;23.63;;;;;;;0.68;81.31;100436.28;5080884;23;21925;-68
2023/01/27 09:00:51;;;;;;;58.17;22.50;;;;;;;0.75;81.43;100445.50;5079016;23;21324;-64
2023/01/27 09:03:17;;;;;;;64.47;24.33;;;;;;;0.61;80.86;100438.38;5070570;23;20441;-66
2023/01/27 09:05:46;;;;;;;58.93;23.93;;;;;;;0.65;81.14;100444.28;5064283;23;20314;-67
2023/01/27 09:08:13;;;;;;;53.33;23.00;;;;;;;0.73;80.94;100444.72;5068740;23;21402;-71
2023/01/27 09:10:40;;;;;;;51.83;23.77;;;;;;;0.70;79.70;100441.41;5056479;23;20215;-68
2023/01/27 09:13:08;;;;;;;56.30;23.60;;;;;;;0.67;80.84;100446.81;5054929;23;26408;-72
2023/01/27 09:15:35;;;;;;;60.73;23.67;;;;;;;0.68;80.03;100438.88;5073436;23;20268;-67
2023/01/27 09:18:02;;;;;;;54.97;23.57;;;;;;;0.74;79.58;100438.53;5065702;23;20514;-72
2023/01/27 09:20:33;;;;;;;50.47;21.63;;;;;;;0.83;78.90;100438.06;5044769;23;20207;-65
2023/01/27 09:23:00;;;;;;;56.77;22.97;;;;;;;0.90;77.94;100443.81;5064118;23;26324;-66
2023/01/27 09:25:26;;;;;;;48.00;21.60;;;;;;;0.96;77.80;100433.00;5094012;23;20242;-64
2023/01/27 09:27:57;;;;;;;46.00;19.70;;;;;;;1.16;76.37;100444.16;5063800;23;21914;-66
2023/01/27 09:30:25;;;;;;;46.50;20.03;;;;;;;1.29;74.69;100441.69;5054517;23;20210;-69
2023/01/27 09:32:52;;;;;;;51.47;20.63;;;;;;;1.74;74.69;100445.28;5099832;23;21806;-67
2023/01/27 09:35:18;;;;;;;47.63;21.33;;;;;;;2.73;71.64;100451.63;5071183;23;20199;-69
2023/01/27 09:37:56;;;;;;;50.10;21.20;;;;;;;4.10;63.80;100458.66;5048662;23;20208;-67
2023/01/27 09:40:53;;;;;;;46.00;19.73;;;;;;;4.97;58.36;100463.16;5057266;23;25199;-68
2023/01/27 09:43:41;;;;;;;47.70;19.90;;;;;;;6.02;53.75;100474.09;5109548;23;20206;-66
2023/01/27 09:46:08;;;;;;;40.67;19.53;;;;;;;5.47;53.89;100479.78;5079829;23;20602;-68
2023/01/27 09:48:41;;;;;;;42.53;18.20;;;;;;;4.69;57.34;100472.16;5062873;23;20491;-67
2023/01/27 09:51:39;;;;;;;45.00;19.30;;;;;;;3.54;60.35;100464.06;5065067;23;20233;-67
2023/01/27 09:54:18;;;;;;;45.97;19.77;;;;;;;3.21;62.59;100462.66;5030743;23;20283;-69
2023/01/27 09:56:52;;;;;;;38.87;17.60;;;;;;;2.80;63.81;100458.19;5076960;23;20198;-70
2023/01/27 09:59:50;;;;;;;45.10;20.23;;;;;;;2.61;64.89;100457.63;5054036;23;21607;-67
2023/01/27 10:02:29;;;;;;;48.60;21.67;;;;;;;2.47;66.43;100447.97;5086516;23;20602;-68
2023/01/27 10:05:23;;;;;;;42.43;18.10;;;;;;;2.16;67.44;100448.97;5079322;23;23198;-68
2023/01/27 10:08:38;;;;;;;53.50;21.43;;;;;;;2.14;69.40;100438.53;5096791;23;20310;-67
2023/01/27 10:11:14;;;;;;;55.70;21.83;;;;;;;1.91;70.65;100447.75;5035294;23;22184;-65
2023/01/27 10:13:59;;;;;;;52.67;21.70;;;;;;;1.74;71.55;100450.53;5021344;23;20205;-69
2023/01/27 10:16:37;;;;;;;50.53;21.70;;;;;;;1.68;71.68;100447.31;5055575;23;20634;-70
2023/01/27 10:19:58;;;;;;;44.50;18.47;;;;;;;1.66;71.35;100449.19;5059018;23;22730;-67
2023/01/27 10:22:42;;;;;;;45.80;19.97;;;;;;;1.74;71.30;100456.63;5040261;23;20213;-71
2023/01/27 10:25:34;;;;;;;45.50;19.60;;;;;;;1.79;71.21;100453.72;5059968;23;20357;-70
2023/01/27 10:28:10;;;;;;;51.00;21.27;;;;;;;1.66;71.45;100461.44;5066461;23;20688;-66
2023/01/27 10:30:38;;;;;;;47.13;20.70;;;;;;;1.47;72.08;100453.78;5085175;23;20358;-67
2023/01/27 10:33:10;;;;;;;50.53;20.23;;;;;;;1.34;72.99;100468.50;5064850;23;21651;-65
2023/01/27 10:35:54;;;;;;;47.93;19.73;;;;;;;1.27;73.56;100474.09;5060196;23;20233;-66
2023/01/27 10:38:33;;;;;;;46.57;19.57;;;;;;;1.33;73.78;100461.56;5063214;23;20203;-67
2023/01/27 10:41:18;;;;;;;50.03;20.00;;;;;;;1.26;73.65;100467.16;5065815;23;20279;-66
2023/01/27 10:44:14;;;;;;;44.00;20.10;;;;;;;1.12;74.56;100474.06;5079606;23;20558;-68
2023/01/27 10:47:10;;;;;;;50.63;20.40;;;;;;;0.96;75.93;100474.06;4970308;23;20339;-67
2023/01/27 10:49:54;;;;;;;47.57;21.03;;;;;;;1.05;76.56;100468.31;5081687;23;20208;-66
2023/01/27 10:52:24;;;;;;;48.50;20.07;;;;;;;1.17;76.42;100467.69;5054744;23;20959;-67
2023/01/27 10:55:00;;;;;;;47.73;21.27;;;;;;;0.94;76.73;100466.31;5028825;23;21575;-66
2023/01/27 10:57:40;;;;;;;46.80;20.93;;;;;;;0.89;77.60;100468.31;5059886;23;20207;-68
2023/01/27 11:00:30;;;;;;;46.03;20.70;;;;;;;1.01;77.18;100469.44;5061874;23;20210;-65
2023/01/27 11:03:22;;;;;;;50.67;20.30;;;;;;;0.99;78.14;100474.75;5081585;23;20645;-68
2023/01/27 11:05:51;;;;;;;47.93;21.87;;;;;;;0.99;77.85;100473.91;5076793;23;20350;-66
2023/01/27 11:08:21;;;;;;;61.40;23.60;;;;;;;0.96;78.47;100469.69;5082606;23;20273;-66
2023/01/27 11:13:40;;;;;;;47.80;19.67;;;;;;;0.95;77.95;100461.91;5067001;23;20207;-67
2023/01/27 11:16:18;;;;;;;53.43;21.03;;;;;;;0.86;78.88;100455.38;5062984;23;20276;-66
2023/01/27 11:18:49;;;;;;;53.90;21.07;;;;;;;0.83;79.70;100452.94;5040199;23;21877;-66
2023/01/27 11:21:21;;;;;;;46.67;20.47;;;;;;;0.88;79.36;100450.06;5041286;23;20264;-66
2023/01/27 11:23:54;;;;;;;43.57;20.30;;;;;;;0.93;79.75;100442.78;5073593;23;20204;-65
2023/01/27 11:26:39;;;;;;;50.80;20.20;;;;;;;0.96;79.13;100442.63;5071536;23;21778;-69
2023/01/27 11:29:26;;;;;;;46.87;19.67;;;;;;;0.89;79.32;100441.25;5086048;23;21443;-67
2023/01/27 11:32:02;;;;;;;50.87;21.37;;;;;;;0.88;80.58;100434.34;5097902;23;20214;-68
2023/01/27 11:34:47;;;;;;;49.70;20.53;;;;;;;1.07;80.23;100440.25;5107579;23;20358;-73
2023/01/27 11:37:20;;;;;;;51.30;20.67;;;;;;;1.11;80.18;100439.16;5092730;23;20208;-67
2023/01/27 11:39:47;;;;;;;47.43;17.93;;;;;;;1.11;78.57;100430.47;5066038;23;20208;-68
2023/01/27 11:42:14;;;;;;;45.17;18.73;;;;;;;1.11;78.20;100441.78;5046182;23;23833;-68
2023/01/27 11:44:42;;;;;;;47.93;20.80;;;;;;;1.03;79.62;100436.97;5058208;23;20259;-64
2023/01/27 11:47:23;;;;;;;51.93;21.80;;;;;;;1.05;80.51;100429.88;5089532;23;23729;-65
2023/01/27 11:49:51;;;;;;;59.37;24.40;;;;;;;1.01;81.41;100432.75;5070667;23;20216;-65
2023/01/27 11:52:20;;;;;;;59.40;23.73;;;;;;;1.06;82.37;100433.34;5068582;23;20207;-65
2023/01/27 11:54:54;;;;;;;57.17;24.03;;;;;;;1.12;81.80;100433.00;5077952;23;23390;-64
2023/01/27 11:57:23;;;;;;;54.37;23.77;;;;;;;0.96;82.27;100437.38;5076911;23;20214;-63
2023/01/27 12:00:00;;;;;;;51.77;23.73;;;;;;;0.76;83.19;100428.00;5042993;23;20208;-66
2023/01/27 12:02:35;;;;;;;52.20;21.67;;;;;;;0.81;82.50;100429.41;5075676;23;20200;-67